createdAt,value
2022-12-04T00:02:16.892Z,93.83
2022-12-04T00:04:43.161Z,95.47
2022-12-04T00:07:10.604Z,98.43
2022-12-04T00:09:36.840Z,94.63
2022-12-04T00:12:03.060Z,97.63
2022-12-04T00:14:29.314Z,90.07
2022-12-04T00:16:55.651Z,97.50
2022-12-04T00:19:21.916Z,99.53
2022-12-04T00:21:49.645Z,92.10
2022-12-04T00:24:15.924Z,103.77
2022-12-04T00:26:42.179Z,95.37
2022-12-04T00:29:08.414Z,99.97
2022-12-04T00:31:34.693Z,101.90
2022-12-04T00:34:02.216Z,86.90
2022-12-04T00:36:28.733Z,96.17
2022-12-04T00:38:55.201Z,101.00
2022-12-04T00:41:23.124Z,102.10
2022-12-04T00:43:49.563Z,105.97
2022-12-04T00:46:16.503Z,98.57
2022-12-04T00:48:43.031Z,102.77
2022-12-04T00:51:11.078Z,104.53
2022-12-04T00:53:37.892Z,110.57
2022-12-04T00:56:08.824Z,107.17
2022-12-04T00:58:35.547Z,103.67
2022-12-04T01:01:06.034Z,103.77
2022-12-04T01:03:33.173Z,105.77
2022-12-04T01:05:59.727Z,105.47
2022-12-04T01:08:26.039Z,101.93
2022-12-04T01:10:52.655Z,100.23
2022-12-04T01:13:18.888Z,96.67
2022-12-04T01:15:45.432Z,110.53
2022-12-04T01:18:12.238Z,102.80
2022-12-04T01:20:38.476Z,105.90
2022-12-04T01:23:04.732Z,104.63
2022-12-04T01:25:30.975Z,111.50
2022-12-04T01:27:57.199Z,108.33
2022-12-04T01:30:23.600Z,100.13
2022-12-04T01:32:49.871Z,98.93
2022-12-04T01:35:16.161Z,111.90
2022-12-04T01:37:42.382Z,103.17
2022-12-04T01:40:12.905Z,112.87
2022-12-04T01:42:39.116Z,112.70
2022-12-04T01:45:24.242Z,111.97
2022-12-04T01:47:53.971Z,117.13
2022-12-04T01:50:20.195Z,114.80
2022-12-04T01:52:46.416Z,112.10
2022-12-04T01:55:12.702Z,110.50
2022-12-04T01:57:39.159Z,115.07
2022-12-04T02:00:08.827Z,107.27
2022-12-04T02:02:36.485Z,112.93
2022-12-04T02:05:03.747Z,107.60
2022-12-04T02:07:30.033Z,115.50
2022-12-04T02:09:56.700Z,109.60
2022-12-04T02:12:41.785Z,112.13
2022-12-04T02:15:29.667Z,129.93
2022-12-04T02:18:14.643Z,110.13
2022-12-04T02:20:50.151Z,110.03
2022-12-04T02:23:29.661Z,113.83
2022-12-04T02:26:04.010Z,105.80
2022-12-04T02:28:30.213Z,115.67
2022-12-04T02:30:59.137Z,115.70
2022-12-04T02:33:27.826Z,118.67
2022-12-04T02:35:58.603Z,108.97
2022-12-04T02:38:26.954Z,109.67
2022-12-04T02:41:05.495Z,109.83
2022-12-04T02:43:41.858Z,112.43
2022-12-04T02:46:17.390Z,110.17
2022-12-04T02:48:44.386Z,114.93
2022-12-04T02:51:13.169Z,109.63
2022-12-04T02:53:41.954Z,122.13
2022-12-04T02:56:10.943Z,107.33
2022-12-04T02:58:42.847Z,110.80
2022-12-04T03:01:19.568Z,108.90
2022-12-04T03:03:59.071Z,117.17
2022-12-04T03:06:27.172Z,115.60
2022-12-04T03:09:06.297Z,106.27
2022-12-04T03:11:34.035Z,113.93
2022-12-04T03:14:05.143Z,113.13
2022-12-04T03:16:35.855Z,119.47
2022-12-04T03:19:18.533Z,113.43
2022-12-04T03:21:47.985Z,112.73
2022-12-04T03:24:19.741Z,107.67
2022-12-04T03:27:06.984Z,116.53
2022-12-04T03:29:42.214Z,117.73
2022-12-04T03:32:08.471Z,114.93
2022-12-04T03:34:38.847Z,118.40
2022-12-04T03:37:10.397Z,125.13
2022-12-04T03:39:36.635Z,118.67
2022-12-04T03:42:14.738Z,116.90
2022-12-04T03:44:46.355Z,126.07
2022-12-04T03:47:16.517Z,109.93
2022-12-04T03:49:48.885Z,120.73
2022-12-04T03:52:20.653Z,115.27
2022-12-04T03:54:49.310Z,122.60
2022-12-04T03:57:20.729Z,119.20
2022-12-04T03:59:55.406Z,101.97
2022-12-04T04:02:24.330Z,105.20
2022-12-04T04:04:52.921Z,108.77
2022-12-04T04:07:35.879Z,116.13
2022-12-04T04:10:05.725Z,106.63
2022-12-04T04:12:35.460Z,102.27
2022-12-04T04:15:23.049Z,113.73
2022-12-04T04:18:08.703Z,112.00
2022-12-04T04:20:53.561Z,113.67
2022-12-04T04:23:38.952Z,107.13
2022-12-04T04:26:05.421Z,105.20
2022-12-04T04:28:39.290Z,113.20
2022-12-04T04:31:12.705Z,107.73
2022-12-04T04:33:46.518Z,112.23
2022-12-04T04:36:22.396Z,109.73
2022-12-04T04:38:58.195Z,111.77
2022-12-04T04:41:28.358Z,108.50
2022-12-04T04:43:59.774Z,102.17
2022-12-04T04:46:31.075Z,113.17
2022-12-04T04:48:58.499Z,115.67
2022-12-04T04:51:26.146Z,110.13
2022-12-04T04:53:54.562Z,107.50
2022-12-04T04:56:21.317Z,107.93
2022-12-04T04:58:47.543Z,104.60
2022-12-04T05:01:15.925Z,106.43
2022-12-04T05:03:42.613Z,106.67
2022-12-04T05:06:09.165Z,104.70
2022-12-04T05:08:35.760Z,102.70
2022-12-04T05:11:02.415Z,104.23
2022-12-04T05:13:29.429Z,107.30
2022-12-04T05:15:59.994Z,106.73
2022-12-04T05:18:26.705Z,103.37
2022-12-04T05:20:53.086Z,101.20
2022-12-04T05:23:19.368Z,106.37
2022-12-04T05:25:45.632Z,109.70
2022-12-04T05:28:11.942Z,104.27
2022-12-04T05:30:38.233Z,105.97
2022-12-04T05:33:04.867Z,104.90
2022-12-04T05:35:31.203Z,102.50
2022-12-04T05:37:57.405Z,102.10
2022-12-04T05:40:23.646Z,102.40
2022-12-04T05:42:49.876Z,108.13
2022-12-04T05:45:16.114Z,105.33
2022-12-04T05:47:42.906Z,102.87
2022-12-04T05:50:10.179Z,98.90
2022-12-04T05:52:36.464Z,95.97
2022-12-04T05:55:02.725Z,95.70
2022-12-04T05:57:30.173Z,111.60
2022-12-04T05:59:57.001Z,111.13
2022-12-04T06:02:23.512Z,117.10
2022-12-04T06:04:49.784Z,101.27
2022-12-04T06:07:15.999Z,108.00
2022-12-04T06:09:42.255Z,103.73
2022-12-04T06:12:08.554Z,102.93
2022-12-04T06:14:39.263Z,104.93
2022-12-04T06:17:06.087Z,104.77
2022-12-04T06:19:32.310Z,96.80
2022-12-04T06:21:58.525Z,102.53
2022-12-04T06:24:24.894Z,109.20
2022-12-04T06:27:26.154Z,91.23
2022-12-04T06:29:41.316Z,106.30
2022-12-04T06:32:07.727Z,108.63
2022-12-04T06:34:35.874Z,113.10
2022-12-04T06:37:02.092Z,107.37
2022-12-04T06:39:28.310Z,105.30
2022-12-04T06:41:54.515Z,105.37
2022-12-04T06:44:20.732Z,98.77
2022-12-04T06:46:50.023Z,101.07
2022-12-04T06:49:16.501Z,95.87
2022-12-04T06:51:42.697Z,97.03
2022-12-04T06:54:09.711Z,104.00
2022-12-04T06:56:36.076Z,100.47
2022-12-04T06:59:02.964Z,104.47
2022-12-04T07:01:30.689Z,104.80
2022-12-04T07:03:57.539Z,96.27
2022-12-04T07:06:27.899Z,103.07
2022-12-04T07:08:55.121Z,97.77
2022-12-04T07:11:22.009Z,95.67
2022-12-04T07:13:49.213Z,102.43
2022-12-04T07:16:16.783Z,92.57
2022-12-04T07:18:43.204Z,101.53
2022-12-04T07:21:11.756Z,102.33
2022-12-04T07:23:37.953Z,99.80
2022-12-04T07:26:07.976Z,109.37
2022-12-04T07:28:34.818Z,105.57
2022-12-04T07:31:03.495Z,99.33
2022-12-04T07:33:29.785Z,86.77
2022-12-04T07:35:59.148Z,104.87
2022-12-04T07:38:25.892Z,100.53
2022-12-04T07:40:52.154Z,96.20
2022-12-04T07:43:18.365Z,96.13
2022-12-04T07:45:44.621Z,104.90
2022-12-04T07:48:10.862Z,103.00
2022-12-04T07:50:37.088Z,92.40
2022-12-04T07:53:03.303Z,95.33
2022-12-04T07:55:29.514Z,97.73
2022-12-04T07:57:55.757Z,93.30
2022-12-04T08:00:22.058Z,104.23
2022-12-04T08:02:49.404Z,102.00
2022-12-04T08:05:15.724Z,100.87
2022-12-04T08:07:41.977Z,96.27
2022-12-04T08:10:08.412Z,93.13
2022-12-04T08:12:35.205Z,99.40
2022-12-04T08:15:01.923Z,92.00
2022-12-04T08:17:28.321Z,86.80
2022-12-04T08:19:54.848Z,95.00
2022-12-04T08:22:25.068Z,95.33
2022-12-04T08:24:51.722Z,102.27
2022-12-04T08:27:17.945Z,97.90
2022-12-04T08:29:44.204Z,107.83
2022-12-04T08:32:10.441Z,100.13
2022-12-04T08:34:36.661Z,101.07
2022-12-04T08:37:02.947Z,97.50
2022-12-04T08:39:29.176Z,94.87
2022-12-04T08:41:57.327Z,93.97
2022-12-04T08:44:23.801Z,89.27
2022-12-04T08:46:50.136Z,98.07
2022-12-04T08:49:16.455Z,95.73
2022-12-04T08:51:42.828Z,101.20
2022-12-04T08:54:09.182Z,95.60
2022-12-04T08:56:36.077Z,99.87
2022-12-04T08:59:02.298Z,97.80
2022-12-04T09:01:28.974Z,93.27
2022-12-04T09:03:55.800Z,96.63
2022-12-04T09:06:22.562Z,89.37
2022-12-04T09:08:51.234Z,99.40
2022-12-04T09:11:18.923Z,96.40
2022-12-04T09:13:45.821Z,89.77
2022-12-04T09:16:13.403Z,91.87
2022-12-04T09:18:40.188Z,90.47
2022-12-04T09:21:07.754Z,90.73
2022-12-04T09:23:35.223Z,90.70
2022-12-04T09:26:01.702Z,94.07
2022-12-04T09:28:27.981Z,99.30
2022-12-04T09:30:57.898Z,90.67
2022-12-04T09:33:24.291Z,85.73
2022-12-04T09:35:50.512Z,90.47
2022-12-04T09:38:16.730Z,85.67
2022-12-04T09:40:50.490Z,88.33
2022-12-04T09:43:25.613Z,86.10
2022-12-04T09:45:53.908Z,93.60
2022-12-04T09:48:20.990Z,89.23
2022-12-04T09:50:48.094Z,93.70
2022-12-04T09:53:27.435Z,77.67
2022-12-04T09:56:03.815Z,90.10
2022-12-04T09:58:40.104Z,85.97
2022-12-04T10:01:06.802Z,93.10
2022-12-04T10:03:33.630Z,93.93
2022-12-04T10:06:18.748Z,84.23
2022-12-04T10:08:46.240Z,82.07
2022-12-04T10:11:14.617Z,89.40
2022-12-04T10:13:41.887Z,91.93
2022-12-04T10:16:19.257Z,86.80
2022-12-04T10:19:04.122Z,84.73
2022-12-04T10:21:49.880Z,92.17
2022-12-04T10:24:16.103Z,90.67
2022-12-04T10:26:46.604Z,90.33
2022-12-04T10:29:18.102Z,92.47
2022-12-04T10:31:44.821Z,90.07
2022-12-04T10:34:22.778Z,84.23
2022-12-04T10:36:50.980Z,89.00
2022-12-04T10:39:24.676Z,85.60
2022-12-04T10:41:54.633Z,89.07
2022-12-04T10:44:21.266Z,87.60
2022-12-04T10:46:48.457Z,83.30
2022-12-04T10:49:21.164Z,81.73
2022-12-04T10:51:47.866Z,81.83
2022-12-04T10:54:17.985Z,90.30
2022-12-04T10:56:51.143Z,91.77
2022-12-04T10:59:17.414Z,79.77
2022-12-04T11:01:44.512Z,78.93
2022-12-04T11:04:43.002Z,79.10
2022-12-04T11:07:18.668Z,81.33
2022-12-04T11:09:54.610Z,78.13
2022-12-04T11:12:22.500Z,81.33
2022-12-04T11:14:59.421Z,80.93
2022-12-04T11:17:25.867Z,85.17
2022-12-04T11:20:24.437Z,73.87
2022-12-04T11:22:54.684Z,78.20
2022-12-04T11:25:21.866Z,83.47
2022-12-04T11:27:49.582Z,78.67
2022-12-04T11:30:19.213Z,80.37
2022-12-04T11:32:46.281Z,84.77
2022-12-04T11:35:15.422Z,81.87
2022-12-04T11:37:45.298Z,83.93
2022-12-04T11:40:18.810Z,74.17
2022-12-04T11:42:56.599Z,75.50
2022-12-04T11:45:24.454Z,77.00
2022-12-04T11:47:58.823Z,76.73
2022-12-04T11:50:51.685Z,75.93
2022-12-04T11:53:38.318Z,75.63
2022-12-04T11:56:11.478Z,78.93
2022-12-04T11:58:40.835Z,76.53
2022-12-04T12:01:24.747Z,76.80
2022-12-04T12:04:07.687Z,69.17
2022-12-04T12:06:50.943Z,75.07
2022-12-04T12:09:43.596Z,74.50
2022-12-04T12:12:23.261Z,67.67
2022-12-04T12:14:49.472Z,64.83
2022-12-04T12:17:23.910Z,68.50
2022-12-04T12:19:57.881Z,71.40
2022-12-04T12:22:42.891Z,66.73
2022-12-04T12:25:18.945Z,76.47
2022-12-04T12:28:04.548Z,68.10
2022-12-04T12:30:41.910Z,68.40
2022-12-04T12:33:11.673Z,70.00
2022-12-04T12:35:47.788Z,72.80
2022-12-04T12:38:22.971Z,74.37
2022-12-04T12:40:52.400Z,73.67
2022-12-04T12:43:22.395Z,72.43
2022-12-04T12:45:52.713Z,67.27
2022-12-04T12:48:37.108Z,71.10
2022-12-04T12:51:35.548Z,72.30
2022-12-04T12:54:09.694Z,74.73
2022-12-04T12:56:40.504Z,72.53
2022-12-04T12:59:14.242Z,74.77
2022-12-04T13:01:40.510Z,63.17
2022-12-04T13:04:12.990Z,64.87
2022-12-04T13:06:40.402Z,75.40
2022-12-04T13:09:27.819Z,65.93
2022-12-04T13:11:57.187Z,70.37
2022-12-04T13:14:23.447Z,74.23
2022-12-04T13:16:54.998Z,72.53
2022-12-04T13:19:24.970Z,72.37
2022-12-04T13:21:53.089Z,76.57
2022-12-04T13:24:35.075Z,75.57
2022-12-04T13:27:06.930Z,68.67
2022-12-04T13:30:00.883Z,72.20
2022-12-04T13:32:37.191Z,70.37
2022-12-04T13:35:10.421Z,68.87
2022-12-04T13:37:45.814Z,73.13
2022-12-04T13:40:26.828Z,75.30
2022-12-04T13:42:53.266Z,73.20
2022-12-04T13:45:27.290Z,75.00
2022-12-04T13:48:01.565Z,70.73
2022-12-04T13:50:28.015Z,82.30
2022-12-04T13:52:55.467Z,73.47
2022-12-04T13:55:26.589Z,75.80
2022-12-04T13:57:58.179Z,71.20
2022-12-04T14:00:29.843Z,78.93
2022-12-04T14:02:57.884Z,72.67
2022-12-04T14:05:28.497Z,80.07
2022-12-04T14:08:07.218Z,81.57
2022-12-04T14:10:37.043Z,76.43
2022-12-04T14:13:13.258Z,76.10
2022-12-04T14:15:39.706Z,73.53
2022-12-04T14:18:09.110Z,86.03
2022-12-04T14:20:35.475Z,78.20
2022-12-04T14:23:09.549Z,78.90
2022-12-04T14:25:38.058Z,80.53
2022-12-04T14:28:41.644Z,77.27
2022-12-04T14:31:08.600Z,81.00
2022-12-04T14:33:39.298Z,90.20
2022-12-04T14:36:08.014Z,81.70
2022-12-04T14:38:34.302Z,85.77
2022-12-04T14:41:01.636Z,84.67
2022-12-04T14:43:30.731Z,93.80
2022-12-04T14:46:00.267Z,85.00
2022-12-04T14:48:32.560Z,84.03
2022-12-04T14:51:05.039Z,92.27
2022-12-04T14:53:57.216Z,96.13
2022-12-04T14:56:29.154Z,87.07
2022-12-04T14:58:55.704Z,86.57
2022-12-04T15:01:28.647Z,89.20
2022-12-04T15:03:56.992Z,91.13
2022-12-04T15:06:27.456Z,95.53
2022-12-04T15:09:14.862Z,95.90
2022-12-04T15:12:13.617Z,93.33
2022-12-04T15:14:49.931Z,103.87
2022-12-04T15:17:17.336Z,98.73
2022-12-04T15:19:43.932Z,94.67
2022-12-04T15:22:20.908Z,87.60
2022-12-04T15:24:47.203Z,94.03
2022-12-04T15:27:14.745Z,101.17
2022-12-04T15:29:48.133Z,107.73
2022-12-04T15:32:24.593Z,96.87
2022-12-04T15:34:52.110Z,103.97
2022-12-04T15:37:31.346Z,95.07
2022-12-04T15:39:59.236Z,98.00
2022-12-04T15:42:27.365Z,106.27
2022-12-04T15:45:01.698Z,98.73
2022-12-04T15:47:32.958Z,103.20
2022-12-04T15:50:21.316Z,104.07
2022-12-04T15:52:49.220Z,106.70
2022-12-04T15:55:17.302Z,106.03
2022-12-04T15:57:49.501Z,104.80
2022-12-04T16:00:42.855Z,109.03
2022-12-04T16:03:21.651Z,103.40
2022-12-04T16:05:48.061Z,103.80
2022-12-04T16:08:20.501Z,105.17
2022-12-04T16:10:55.268Z,113.33
2022-12-04T16:13:29.324Z,116.40
2022-12-04T16:15:56.225Z,113.73
2022-12-04T16:18:22.456Z,113.00
2022-12-04T16:20:48.682Z,127.75
2022-12-04T16:23:15.730Z,120.47
2022-12-04T16:25:41.964Z,126.77
2022-12-04T16:28:08.219Z,126.53
2022-12-04T16:30:35.399Z,114.23
2022-12-04T16:33:01.753Z,122.37
2022-12-04T16:35:30.397Z,129.37
2022-12-04T16:37:56.641Z,124.03
2022-12-04T16:40:22.907Z,123.13
2022-12-04T16:42:49.190Z,114.80
2022-12-04T16:45:21.518Z,138.10
2022-12-04T16:47:50.453Z,123.20
2022-12-04T16:50:16.914Z,126.13
2022-12-04T16:52:43.352Z,130.80
2022-12-04T16:55:20.573Z,126.60
2022-12-04T16:57:47.196Z,125.00
2022-12-04T17:00:14.364Z,128.73
2022-12-04T17:02:41.050Z,126.83
2022-12-04T17:05:07.511Z,120.30
2022-12-04T17:07:33.786Z,126.40
2022-12-04T17:10:00.108Z,144.60
2022-12-04T17:12:26.330Z,121.60
2022-12-04T17:14:52.551Z,144.50
2022-12-04T17:17:18.761Z,144.20
2022-12-04T17:19:45.126Z,144.10
2022-12-04T17:22:13.410Z,141.70
2022-12-04T17:24:47.178Z,139.90
2022-12-04T17:27:15.511Z,139.83
2022-12-04T17:29:41.722Z,143.10
2022-12-04T17:32:07.978Z,133.60
2022-12-04T17:34:34.257Z,131.43
2022-12-04T17:37:00.529Z,129.77
2022-12-04T17:39:26.777Z,142.63
2022-12-04T17:41:52.989Z,134.50
2022-12-04T17:44:19.195Z,140.07
2022-12-04T17:46:45.692Z,135.80
2022-12-04T17:49:11.962Z,128.53
2022-12-04T17:51:38.328Z,133.73
2022-12-04T17:54:05.500Z,142.90
2022-12-04T17:56:32.308Z,133.93
2022-12-04T17:58:58.690Z,130.70
2022-12-04T18:01:26.226Z,126.83
2022-12-04T18:03:53.950Z,126.87
2022-12-04T18:06:23.289Z,139.93
2022-12-04T18:08:50.755Z,135.37
2022-12-04T18:11:20.361Z,139.73
2022-12-04T18:13:47.282Z,140.03
2022-12-04T18:16:13.578Z,138.47
2022-12-04T18:18:39.870Z,133.77
2022-12-04T18:21:07.766Z,132.23
2022-12-04T18:23:34.037Z,139.97
2022-12-04T18:26:01.015Z,130.90
2022-12-04T18:28:28.727Z,151.47
2022-12-04T18:30:55.131Z,136.37
2022-12-04T18:33:21.503Z,125.67
2022-12-04T18:35:55.293Z,126.07
2022-12-04T18:38:22.365Z,139.37
2022-12-04T18:40:50.139Z,126.73
2022-12-04T18:43:17.383Z,146.53
2022-12-04T18:45:44.779Z,127.20
2022-12-04T18:48:15.361Z,123.80
2022-12-04T18:50:41.642Z,133.07
2022-12-04T18:53:07.849Z,122.77
2022-12-04T18:55:37.347Z,130.27
2022-12-04T18:58:03.795Z,124.10
2022-12-04T19:00:30.046Z,126.07
2022-12-04T19:02:56.359Z,128.57
2022-12-04T19:05:22.664Z,133.93
2022-12-04T19:07:49.854Z,124.97
2022-12-04T19:10:16.268Z,134.23
2022-12-04T19:12:42.490Z,123.10
2022-12-04T19:15:08.982Z,123.13
2022-12-04T19:17:35.202Z,119.60
2022-12-04T19:20:01.604Z,127.33
2022-12-04T19:22:29.137Z,116.90
2022-12-04T19:24:55.357Z,122.90
2022-12-04T19:27:21.602Z,121.80
2022-12-04T19:29:47.940Z,115.20
2022-12-04T19:32:17.340Z,117.07
2022-12-04T19:34:43.754Z,124.37
2022-12-04T19:37:10.018Z,118.93
2022-12-04T19:39:36.374Z,118.80
2022-12-04T19:42:02.652Z,117.13
2022-12-04T19:47:15.098Z,123.07
2022-12-04T19:49:42.470Z,114.43
2022-12-04T19:52:08.775Z,112.10
2022-12-04T19:54:35.024Z,122.60
2022-12-04T19:57:01.452Z,112.80
2022-12-04T19:59:30.563Z,118.23
2022-12-04T20:02:00.957Z,107.20
2022-12-04T20:04:27.223Z,117.37
2022-12-04T20:06:53.479Z,104.37
2022-12-04T20:09:20.689Z,104.77
2022-12-04T20:11:46.983Z,111.77
2022-12-04T20:14:13.290Z,105.03
2022-12-04T20:16:40.835Z,106.17
2022-12-04T20:19:08.187Z,108.57
2022-12-04T20:21:34.642Z,105.00
2022-12-04T20:24:02.340Z,105.63
2022-12-04T20:26:29.992Z,101.63
2022-12-04T20:28:57.997Z,105.17
2022-12-04T20:31:29.372Z,99.47
2022-12-04T20:33:56.906Z,109.10
2022-12-04T20:36:23.816Z,99.87
2022-12-04T20:38:52.235Z,102.50
2022-12-04T20:41:18.724Z,101.20
2022-12-04T20:43:46.113Z,111.33
2022-12-04T20:46:16.954Z,102.07
2022-12-04T20:48:48.155Z,103.70
2022-12-04T20:51:15.694Z,105.33
2022-12-04T20:53:41.966Z,98.57
2022-12-04T20:56:08.410Z,100.67
2022-12-04T20:58:34.638Z,104.53
2022-12-04T21:01:08.130Z,101.60
2022-12-04T21:03:34.515Z,103.30
2022-12-04T21:06:00.733Z,103.57
2022-12-04T21:08:45.370Z,108.67
2022-12-04T21:11:11.902Z,100.17
2022-12-04T21:13:56.798Z,98.83
2022-12-04T21:16:23.701Z,104.90
2022-12-04T21:18:50.009Z,104.80
2022-12-04T21:21:16.365Z,99.60
2022-12-04T21:23:42.567Z,98.03
2022-12-04T21:26:08.921Z,98.63
2022-12-04T21:28:35.175Z,110.60
2022-12-04T21:31:05.281Z,106.53
2022-12-04T21:33:37.764Z,94.43
2022-12-04T21:36:05.298Z,105.40
2022-12-04T21:38:32.583Z,106.83
2022-12-04T21:40:58.800Z,106.20
2022-12-04T21:43:27.119Z,111.77
2022-12-04T21:46:04.386Z,99.30
2022-12-04T21:48:34.764Z,106.83
2022-12-04T21:51:06.221Z,105.77
2022-12-04T21:53:32.465Z,101.40
2022-12-04T21:55:58.723Z,106.97
2022-12-04T21:58:25.684Z,99.73
2022-12-04T22:00:51.982Z,105.20
2022-12-04T22:03:18.341Z,95.67
2022-12-04T22:05:44.920Z,100.80
2022-12-04T22:08:11.757Z,108.53
2022-12-04T22:10:42.037Z,105.70
2022-12-04T22:13:08.527Z,108.70
2022-12-04T22:15:39.298Z,110.53
2022-12-04T22:18:06.451Z,99.03
2022-12-04T22:20:32.698Z,108.57
2022-12-04T22:22:59.122Z,94.60
2022-12-04T22:25:25.330Z,111.43
2022-12-04T22:27:52.767Z,106.63
2022-12-04T22:30:19.224Z,108.57
2022-12-04T22:32:45.610Z,114.27
2022-12-04T22:35:11.903Z,116.17
2022-12-04T22:37:43.939Z,102.47
2022-12-04T22:40:11.192Z,113.17
2022-12-04T22:42:37.418Z,105.90
2022-12-04T22:45:03.765Z,114.33
2022-12-04T22:47:30.027Z,105.93
2022-12-04T22:49:56.513Z,108.27
2022-12-04T22:52:22.993Z,121.43
2022-12-04T22:54:52.368Z,116.67
2022-12-04T22:57:18.864Z,115.27
2022-12-04T22:59:45.465Z,112.77
2022-12-04T23:02:11.695Z,120.23
2022-12-04T23:04:38.135Z,108.33
2022-12-04T23:07:04.839Z,118.37
2022-12-04T23:09:31.307Z,118.90
2022-12-04T23:11:57.543Z,122.37
2022-12-04T23:14:24.431Z,115.87
2022-12-04T23:16:50.827Z,120.50
2022-12-04T23:19:18.187Z,116.93
2022-12-04T23:21:45.174Z,119.07
2022-12-04T23:24:12.060Z,112.20
2022-12-04T23:26:39.733Z,112.43
2022-12-04T23:29:23.320Z,114.43
2022-12-04T23:31:50.049Z,111.97
2022-12-04T23:34:16.364Z,113.00
2022-12-04T23:36:42.619Z,117.60
2022-12-04T23:39:08.947Z,115.30
2022-12-04T23:41:35.836Z,114.80
2022-12-04T23:44:02.072Z,113.50
2022-12-04T23:46:31.229Z,122.97
2022-12-04T23:48:58.193Z,123.10
2022-12-04T23:51:24.763Z,120.97
2022-12-04T23:53:51.482Z,119.10
2022-12-04T23:56:19.489Z,118.10
2022-12-04T23:58:46.789Z,111.17
